createdAt,value
2023-02-03T00:01:42.087Z,102488.47
2023-02-03T00:04:10.526Z,102479.25
2023-02-03T00:06:38.811Z,102468.44
2023-02-03T00:09:07.128Z,102471.66
2023-02-03T00:11:35.458Z,102474.34
2023-02-03T00:14:08.117Z,102464.63
2023-02-03T00:16:36.839Z,102474.06
2023-02-03T00:19:05.238Z,102478.66
2023-02-03T00:21:33.533Z,102472.44
2023-02-03T00:24:01.849Z,102467.22
2023-02-03T00:26:30.237Z,102467.03
2023-02-03T00:29:00.922Z,102450.56
2023-02-03T00:31:30.697Z,102437.84
2023-02-03T00:33:59.507Z,102443.25
2023-02-03T00:36:28.446Z,102445.59
2023-02-03T00:38:56.896Z,102440.53
2023-02-03T00:41:30.087Z,102445.94
2023-02-03T00:43:58.485Z,102462.16
2023-02-03T00:46:26.962Z,102455.66
2023-02-03T00:48:56.641Z,102452.44
2023-02-03T00:51:25.069Z,102452.44
2023-02-03T00:53:53.345Z,102458.94
2023-02-03T00:56:21.660Z,102463.25
2023-02-03T00:58:49.972Z,102465.66
2023-02-03T01:01:18.509Z,102485.03
2023-02-03T01:03:46.824Z,102475.03
2023-02-03T01:06:19.050Z,102473.94
2023-02-03T01:08:47.989Z,102489.06
2023-02-03T01:11:18.734Z,102485.25
2023-02-03T01:13:47.564Z,102497.66
2023-02-03T01:16:18.100Z,102496.88
2023-02-03T01:18:47.499Z,102504.66
2023-02-03T01:21:20.569Z,102507.38
2023-02-03T01:23:49.161Z,102510.88
2023-02-03T01:26:20.070Z,102515.47
2023-02-03T01:28:53.901Z,102519.78
2023-02-03T01:31:25.805Z,102507.88
2023-02-03T01:33:55.261Z,102510.28
2023-02-03T01:36:27.644Z,102522.94
2023-02-03T01:38:56.266Z,102525.66
2023-02-03T01:41:27.849Z,102501.84
2023-02-03T01:43:58.579Z,102496.44
2023-02-03T01:46:32.116Z,102497.25
2023-02-03T01:49:09.449Z,102506.16
2023-02-03T01:51:42.560Z,102499.16
2023-02-03T01:54:14.911Z,102501.53
2023-02-03T01:56:49.485Z,102502.66
2023-02-03T01:59:20.391Z,102513.78
2023-02-03T02:01:49.120Z,102507.56
2023-02-03T02:04:18.130Z,102500.25
2023-02-03T02:06:48.960Z,102507.25
2023-02-03T02:09:17.800Z,102493.22
2023-02-03T02:11:46.256Z,102498.63
2023-02-03T02:14:14.740Z,102489.75
2023-02-03T02:16:51.389Z,102476.25
2023-02-03T02:20:02.929Z,102460.78
2023-02-03T02:22:40.834Z,102460.78
2023-02-03T02:25:52.973Z,102441.88
2023-02-03T02:28:58.285Z,102435.19
2023-02-03T02:32:06.599Z,102433.75
2023-02-03T02:34:50.521Z,102433.75
2023-02-03T02:37:27.835Z,102439.16
2023-02-03T02:40:08.861Z,102461.91
2023-02-03T02:42:48.114Z,102451.09
2023-02-03T02:45:24.870Z,102449.97
2023-02-03T02:48:01.401Z,102455.38
2023-02-03T02:50:37.886Z,102467.81
2023-02-03T02:53:08.025Z,102461.31
2023-02-03T02:55:39.485Z,102467.22
2023-02-03T02:58:11.702Z,102460.69
2023-02-03T03:00:42.259Z,102454.19
2023-02-03T03:03:17.896Z,102443.09
2023-02-03T03:05:52.449Z,102437.97
2023-02-03T03:08:25.001Z,102436.38
2023-02-03T03:10:56.645Z,102452.31
2023-02-03T03:13:32.928Z,102436.38
2023-02-03T03:16:02.934Z,102444.00
2023-02-03T03:18:37.386Z,102442.09
2023-02-03T03:21:08.248Z,102444.00
2023-02-03T03:23:39.886Z,102458.00
2023-02-03T03:26:14.761Z,102451.47
2023-02-03T03:28:49.547Z,102449.59
2023-02-03T03:31:20.701Z,102455.81
2023-02-03T03:33:51.149Z,102460.88
2023-02-03T03:36:27.238Z,102452.47
2023-02-03T03:39:03.537Z,102440.06
2023-02-03T03:41:42.775Z,102448.16
2023-02-03T03:44:17.268Z,102452.00
2023-02-03T03:46:53.573Z,102451.22
2023-02-03T03:49:26.748Z,102439.59
2023-02-03T03:52:01.982Z,102442.28
2023-02-03T03:54:32.633Z,102442.28
2023-02-03T03:57:06.496Z,102442.75
2023-02-03T03:59:40.575Z,102428.94
2023-02-03T04:02:09.118Z,102448.97
2023-02-03T04:04:41.061Z,102436.56
2023-02-03T04:07:09.522Z,102432.56
2023-02-03T04:09:37.842Z,102445.28
2023-02-03T04:12:07.142Z,102442.56
2023-02-03T04:14:38.730Z,102441.78
2023-02-03T04:17:07.421Z,102441.78
2023-02-03T04:19:35.823Z,102446.38
2023-02-03T04:22:06.619Z,102432.56
2023-02-03T04:24:34.884Z,102449.59
2023-02-03T04:27:05.188Z,102447.38
2023-02-03T04:29:33.717Z,102441.66
2023-02-03T04:32:02.119Z,102450.88
2023-02-03T04:34:30.444Z,102448.16
2023-02-03T04:36:58.770Z,102448.16
2023-02-03T04:39:28.439Z,102459.47
2023-02-03T04:41:57.073Z,102440.53
2023-02-03T04:44:25.455Z,102447.06
2023-02-03T04:46:53.857Z,102442.75
2023-02-03T04:49:22.249Z,102439.75
2023-02-03T04:51:51.023Z,102446.75
2023-02-03T04:54:19.378Z,102439.75
2023-02-03T04:56:49.015Z,102450.88
2023-02-03T04:59:17.334Z,102434.19
2023-02-03T05:01:45.672Z,102438.16
2023-02-03T05:04:14.104Z,102433.53
2023-02-03T05:06:42.537Z,102437.34
2023-02-03T05:09:10.924Z,102442.44
2023-02-03T05:11:39.417Z,102434.34
2023-02-03T05:14:09.432Z,102425.13
2023-02-03T05:16:37.782Z,102435.13
2023-02-03T05:19:06.254Z,102416.22
2023-02-03T05:21:34.604Z,102411.63
2023-02-03T05:24:06.921Z,102409.69
2023-02-03T05:26:35.815Z,102407.31
2023-02-03T05:29:04.507Z,102408.91
2023-02-03T05:31:34.880Z,102420.03
2023-02-03T05:34:03.307Z,102419.22
2023-02-03T05:36:31.707Z,102435.44
2023-02-03T05:39:00.289Z,102430.84
2023-02-03T05:41:46.254Z,102447.56
2023-02-03T05:44:14.528Z,102451.56
2023-02-03T05:46:44.212Z,102456.97
2023-02-03T05:49:12.538Z,102469.69
2023-02-03T05:51:41.239Z,102448.34
2023-02-03T05:54:10.772Z,102465.88
2023-02-03T05:56:39.665Z,102456.34
2023-02-03T05:59:08.370Z,102456.34
2023-02-03T06:01:37.809Z,102465.25
2023-02-03T06:04:07.987Z,102456.34
2023-02-03T06:06:36.863Z,102467.16
2023-02-03T06:09:08.181Z,102455.53
2023-02-03T06:11:37.589Z,102454.97
2023-02-03T06:14:06.449Z,102450.13
2023-02-03T06:16:34.842Z,102448.56
2023-02-03T06:19:03.187Z,102450.13
2023-02-03T06:21:32.895Z,102456.69
2023-02-03T06:24:01.157Z,102467.00
2023-02-03T06:26:29.493Z,102465.88
2023-02-03T06:28:57.749Z,102466.34
2023-02-03T06:31:26.320Z,102462.09
2023-02-03T06:33:57.244Z,102463.19
2023-02-03T06:36:25.664Z,102453.97
2023-02-03T06:38:55.426Z,102445.53
2023-02-03T06:41:27.555Z,102443.16
2023-02-03T06:43:55.929Z,102443.16
2023-02-03T06:46:28.383Z,102442.81
2023-02-03T06:48:57.090Z,102444.72
2023-02-03T06:51:25.670Z,102444.41
2023-02-03T06:53:55.579Z,102450.66
2023-02-03T06:56:24.045Z,102454.44
2023-02-03T06:58:52.468Z,102445.25
2023-02-03T07:01:20.900Z,102458.75
2023-02-03T07:03:49.305Z,102457.34
2023-02-03T07:06:17.644Z,102460.84
2023-02-03T07:08:46.292Z,102463.56
2023-02-03T07:11:15.975Z,102460.06
2023-02-03T07:13:44.487Z,102451.94
2023-02-03T07:16:12.815Z,102455.44
2023-02-03T07:18:47.263Z,102457.53
2023-02-03T07:21:17.826Z,102461.34
2023-02-03T07:23:49.320Z,102463.75
2023-02-03T07:26:19.753Z,102465.16
2023-02-03T07:28:48.184Z,102466.75
2023-02-03T07:31:17.032Z,102461.34
2023-02-03T07:33:45.563Z,102475.34
2023-02-03T07:36:13.884Z,102475.84
2023-02-03T07:38:42.253Z,102460.72
2023-02-03T07:41:10.765Z,102469.34
2023-02-03T07:43:40.470Z,102470.44
2023-02-03T07:46:08.934Z,102468.53
2023-02-03T07:48:37.295Z,102478.56
2023-02-03T07:51:06.242Z,102463.13
2023-02-03T07:53:34.878Z,102467.13
2023-02-03T07:56:03.932Z,102454.72
2023-02-03T07:58:33.467Z,102477.13
2023-02-03T08:01:03.292Z,102474.75
2023-02-03T08:03:31.704Z,102470.13
2023-02-03T08:06:00.057Z,102471.53
2023-02-03T08:08:28.412Z,102487.16
2023-02-03T08:10:57.526Z,102488.75
2023-02-03T08:13:26.259Z,102476.84
2023-02-03T08:15:54.750Z,102489.59
2023-02-03T08:18:24.465Z,102496.88
2023-02-03T08:20:52.876Z,102505.50
2023-02-03T08:23:21.603Z,102502.78
2023-02-03T08:25:52.888Z,102517.41
2023-02-03T08:28:21.864Z,102518.06
2023-02-03T08:30:50.330Z,102523.78
2023-02-03T08:33:18.734Z,102520.28
2023-02-03T08:35:50.920Z,102507.69
2023-02-03T08:38:21.924Z,102518.38
2023-02-03T08:40:50.444Z,102516.78
2023-02-03T08:43:18.883Z,102531.41
2023-02-03T08:45:47.280Z,102533.66
2023-02-03T08:48:15.996Z,102546.66
2023-02-03T08:50:51.950Z,102544.25
2023-02-03T08:53:21.784Z,102543.16
2023-02-03T08:55:50.333Z,102544.25
2023-02-03T08:58:18.739Z,102539.75
2023-02-03T09:00:49.827Z,102537.06
2023-02-03T09:03:18.469Z,102543.25
2023-02-03T09:05:46.999Z,102534.84
2023-02-03T09:08:15.344Z,102525.13
2023-02-03T09:10:45.055Z,102513.50
2023-02-03T09:13:13.425Z,102533.75
2023-02-03T09:15:41.710Z,102535.34
2023-02-03T09:18:10.054Z,102541.25
2023-02-03T09:20:38.490Z,102549.34
2023-02-03T09:23:06.999Z,102536.63
2023-02-03T09:25:35.423Z,102541.25
2023-02-03T09:28:05.512Z,102530.44
2023-02-03T09:30:33.946Z,102539.63
2023-02-03T09:33:02.339Z,102548.06
2023-02-03T09:35:30.737Z,102546.47
2023-02-03T09:38:00.796Z,102561.28
2023-02-03T09:40:35.643Z,102555.88
2023-02-03T09:43:27.343Z,102541.25
2023-02-03T09:45:55.794Z,102541.25
2023-02-03T09:48:31.571Z,102549.34
2023-02-03T09:51:00.172Z,102549.06
2023-02-03T09:53:34.491Z,102556.88
2023-02-03T09:56:03.012Z,102556.88
2023-02-03T09:58:35.756Z,102557.34
2023-02-03T10:01:09.989Z,102558.94
2023-02-03T10:03:45.147Z,102570.28
2023-02-03T10:06:26.157Z,102561.56
2023-02-03T10:09:21.287Z,102554.44
2023-02-03T10:12:18.552Z,102568.44
2023-02-03T10:15:16.765Z,102558.91
2023-02-03T10:17:53.109Z,102548.28
2023-02-03T10:20:27.361Z,102555.28
2023-02-03T10:23:01.491Z,102546.25
2023-02-03T10:25:41.018Z,102553.59
2023-02-03T10:28:17.327Z,102568.59
2023-02-03T10:30:51.112Z,102570.34
2023-02-03T10:33:22.162Z,102552.75
2023-02-03T10:35:52.775Z,102556.13
2023-02-03T10:38:39.683Z,102553.09
2023-02-03T10:41:08.105Z,102548.69
2023-02-03T10:43:51.565Z,102553.94
2023-02-03T10:46:28.607Z,102556.88
2023-02-03T10:48:57.556Z,102547.28
2023-02-03T10:51:30.850Z,102556.72
2023-02-03T10:54:00.303Z,102556.44
2023-02-03T10:56:33.444Z,102551.00
2023-02-03T10:59:02.557Z,102548.75
2023-02-03T11:01:43.929Z,102551.19
2023-02-03T11:04:27.027Z,102553.59
2023-02-03T11:06:58.035Z,102557.88
2023-02-03T11:09:32.365Z,102563.00
2023-02-03T11:12:19.830Z,102556.78
2023-02-03T11:14:50.637Z,102550.56
2023-02-03T11:17:23.274Z,102559.97
2023-02-03T11:19:53.486Z,102562.38
2023-02-03T11:22:32.099Z,102545.34
2023-02-03T11:25:03.902Z,102558.25
2023-02-03T11:27:34.672Z,102559.56
2023-02-03T11:30:17.110Z,102552.69
2023-02-03T11:32:50.244Z,102569.44
2023-02-03T11:35:23.977Z,102563.69
2023-02-03T11:37:54.960Z,102568.53
2023-02-03T11:40:29.994Z,102562.31
2023-02-03T11:43:04.856Z,102569.94
2023-02-03T11:45:42.084Z,102572.34
2023-02-03T11:48:28.043Z,102570.09
2023-02-03T11:51:05.426Z,102564.66
2023-02-03T11:53:57.158Z,102565.47
2023-02-03T11:56:39.103Z,102562.75
2023-02-03T11:59:27.598Z,102573.28
2023-02-03T12:02:47.738Z,102564.88
2023-02-03T12:05:47.026Z,102577.63
2023-02-03T12:08:29.221Z,102577.31
2023-02-03T12:11:09.163Z,102576.19
2023-02-03T12:14:05.999Z,102573.50
2023-02-03T12:17:05.537Z,102578.25
2023-02-03T12:19:50.835Z,102578.78
2023-02-03T12:22:27.905Z,102567.63
2023-02-03T12:25:05.831Z,102566.19
2023-02-03T12:27:49.702Z,102573.84
2023-02-03T12:30:26.511Z,102571.31
2023-02-03T12:33:00.194Z,102575.28
2023-02-03T12:35:34.663Z,102573.06
2023-02-03T12:38:13.579Z,102586.34
2023-02-03T12:40:49.328Z,102584.56
2023-02-03T12:43:25.775Z,102593.00
2023-02-03T12:45:59.603Z,102596.22
2023-02-03T12:48:36.562Z,102598.63
2023-02-03T12:51:13.369Z,102599.44
2023-02-03T12:53:51.389Z,102599.44
2023-02-03T12:56:28.203Z,102604.06
2023-02-03T12:59:02.095Z,102597.00
2023-02-03T13:01:37.162Z,102601.03
2023-02-03T13:04:11.146Z,102598.78
2023-02-03T13:06:50.520Z,102592.25
2023-02-03T13:09:31.933Z,102593.84
2023-02-03T13:12:08.154Z,102595.94
2023-02-03T13:14:42.510Z,102586.72
2023-02-03T13:17:19.346Z,102594.84
2023-02-03T13:19:52.732Z,102601.53
2023-02-03T13:22:24.324Z,102603.94
2023-02-03T13:25:06.339Z,102609.84
2023-02-03T13:27:48.151Z,102615.25
2023-02-03T13:30:35.089Z,102621.16
2023-02-03T13:34:12.853Z,102602.97
2023-02-03T13:37:16.693Z,102588.66
2023-02-03T13:39:59.123Z,102590.72
2023-02-03T13:42:30.181Z,102585.00
2023-02-03T13:45:00.730Z,102578.19
2023-02-03T13:47:31.757Z,102589.94
2023-02-03T13:50:02.827Z,102583.13
2023-02-03T13:52:38.725Z,102584.88
2023-02-03T13:55:09.639Z,102584.25
2023-02-03T13:57:40.139Z,102579.78
2023-02-03T14:00:50.977Z,102576.91
2023-02-03T14:03:23.370Z,102582.53
2023-02-03T14:05:54.655Z,102587.31
2023-02-03T14:08:53.748Z,102597.38
2023-02-03T14:11:43.820Z,102596.22
2023-02-03T14:15:04.091Z,102598.34
2023-02-03T14:18:25.079Z,102600.25
2023-02-03T14:21:17.649Z,102595.09
2023-02-03T14:23:59.569Z,102591.94
2023-02-03T14:26:41.355Z,102585.72
2023-02-03T14:29:26.255Z,102597.38
2023-02-03T14:31:58.966Z,102602.00
2023-02-03T14:34:37.353Z,102600.06
2023-02-03T14:37:16.924Z,102599.59
2023-02-03T14:40:21.380Z,102603.09
2023-02-03T14:43:26.160Z,102594.19
2023-02-03T14:46:29.777Z,102605.34
2023-02-03T14:49:25.477Z,102597.19
2023-02-03T14:52:19.495Z,102612.34
2023-02-03T14:55:06.989Z,102612.03
2023-02-03T14:57:44.869Z,102619.38
2023-02-03T15:00:31.733Z,102620.50
2023-02-03T15:03:26.631Z,102626.53
2023-02-03T15:05:58.009Z,102625.59
2023-02-03T15:08:48.340Z,102641.66
2023-02-03T15:11:27.684Z,102646.63
2023-02-03T15:13:57.732Z,102656.34
2023-02-03T15:16:27.453Z,102661.06
2023-02-03T15:19:00.018Z,102681.78
2023-02-03T15:21:28.423Z,102680.94
2023-02-03T15:23:56.786Z,102684.81
2023-02-03T15:26:27.421Z,102671.97
2023-02-03T15:28:57.672Z,102675.03
2023-02-03T15:31:35.875Z,102670.69
2023-02-03T15:34:15.937Z,102682.94
2023-02-03T15:36:49.525Z,102680.03
2023-02-03T15:39:30.392Z,102680.97
2023-02-03T15:42:00.802Z,102697.81
2023-02-03T15:44:34.162Z,102697.63
2023-02-03T15:47:06.208Z,102693.72
2023-02-03T15:49:40.278Z,102700.44
2023-02-03T15:52:14.399Z,102709.97
2023-02-03T15:54:46.223Z,102702.44
2023-02-03T15:57:20.337Z,102704.66
2023-02-03T15:59:55.591Z,102703.06
2023-02-03T16:02:31.258Z,102713.38
2023-02-03T16:05:06.127Z,102708.28
2023-02-03T16:07:34.451Z,102706.19
2023-02-03T16:10:02.854Z,102711.91
2023-02-03T16:12:33.439Z,102713.78
2023-02-03T16:15:03.285Z,102724.91
2023-02-03T16:17:34.357Z,102726.03
2023-02-03T16:20:33.885Z,102748.78
2023-02-03T16:23:16.543Z,102748.78
2023-02-03T16:25:44.860Z,102744.47
2023-02-03T16:28:35.727Z,102755.38
2023-02-03T16:31:29.988Z,102758.09
2023-02-03T16:34:16.029Z,102754.13
2023-02-03T16:37:03.208Z,102756.81
2023-02-03T16:39:49.020Z,102775.03
2023-02-03T16:42:37.582Z,102771.84
2023-02-03T16:45:32.192Z,102768.63
2023-02-03T16:48:18.275Z,102763.81
2023-02-03T16:50:54.068Z,102764.63
2023-02-03T16:53:26.380Z,102774.91
2023-02-03T16:55:57.801Z,102769.84
2023-02-03T16:58:26.503Z,102772.53
2023-02-03T17:00:56.757Z,102773.66
2023-02-03T17:03:27.854Z,102785.56
2023-02-03T17:05:57.437Z,102787.25
2023-02-03T17:08:27.834Z,102784.06
2023-02-03T17:10:56.366Z,102786.75
2023-02-03T17:13:25.491Z,102793.28
2023-02-03T17:15:54.172Z,102799.50
2023-02-03T17:18:22.799Z,102788.66
2023-02-03T17:20:51.176Z,102788.66
2023-02-03T17:23:19.783Z,102800.28
2023-02-03T17:25:51.824Z,102804.91
2023-02-03T17:28:20.321Z,102803.28
2023-02-03T17:30:58.567Z,102811.09
2023-02-03T17:33:27.715Z,102815.72
2023-02-03T17:36:05.882Z,102818.69
2023-02-03T17:55:16.606Z,102853.44
2023-02-03T17:57:46.345Z,102858.34
2023-02-03T18:00:15.782Z,102863.16
2023-02-03T18:02:44.271Z,102864.75
2023-02-03T18:05:12.661Z,102854.75
2023-02-03T18:07:40.953Z,102865.56
2023-02-03T18:10:09.906Z,102865.56
2023-02-03T18:12:38.252Z,102873.06
2023-02-03T18:15:08.928Z,102887.41
2023-02-03T18:17:37.242Z,102879.81
2023-02-03T18:20:06.308Z,102890.34
2023-02-03T18:22:35.080Z,102884.94
2023-02-03T18:25:03.504Z,102885.72
2023-02-03T18:27:31.762Z,102899.75
2023-02-03T18:30:00.044Z,102897.03
2023-02-03T18:32:29.753Z,102902.16
2023-02-03T18:34:58.015Z,102911.34
2023-02-03T18:37:26.459Z,102916.50
2023-02-03T18:39:54.874Z,102914.31
2023-02-03T18:42:23.133Z,102929.44
2023-02-03T18:44:51.404Z,102917.50
2023-02-03T18:47:19.725Z,102918.28
2023-02-03T18:49:49.602Z,102912.41
2023-02-03T18:52:17.966Z,102914.06
2023-02-03T18:54:46.271Z,102926.78
2023-02-03T18:57:15.768Z,102926.50
2023-02-03T18:59:44.827Z,102931.91
2023-02-03T19:02:13.579Z,102932.13
2023-02-03T19:04:41.878Z,102924.03
2023-02-03T19:07:12.672Z,102932.13
2023-02-03T19:09:41.854Z,102928.63
2023-02-03T19:12:10.204Z,102936.44
2023-02-03T19:14:38.495Z,102939.66
2023-02-03T19:17:06.880Z,102936.94
2023-02-03T19:19:35.232Z,102938.56
2023-02-03T19:22:03.586Z,102933.41
2023-02-03T19:24:33.322Z,102935.31
2023-02-03T19:27:01.682Z,102925.91
2023-02-03T19:29:29.986Z,102926.50
2023-02-03T19:31:58.445Z,102922.47
2023-02-03T19:34:28.436Z,102923.28
2023-02-03T19:36:59.134Z,102927.88
2023-02-03T19:39:27.446Z,102932.03
2023-02-03T19:41:57.165Z,102930.13
2023-02-03T19:44:25.505Z,102933.13
2023-02-03T19:46:53.943Z,102943.09
2023-02-03T19:49:22.266Z,102956.13
2023-02-03T19:51:51.896Z,102937.47
2023-02-03T19:54:20.211Z,102954.00
2023-02-03T19:56:48.527Z,102960.00
2023-02-03T19:59:18.314Z,102962.72
2023-02-03T20:01:46.821Z,102962.72
2023-02-03T20:04:15.145Z,102974.13
2023-02-03T20:06:43.423Z,102976.28
2023-02-03T20:09:12.192Z,102982.78
2023-02-03T20:11:40.493Z,102985.81
2023-02-03T20:14:08.848Z,102992.63
2023-02-03T20:16:38.534Z,102992.88
2023-02-03T20:19:07.016Z,102997.47
2023-02-03T20:21:35.295Z,103002.88
2023-02-03T20:24:03.591Z,103007.50
2023-02-03T20:26:31.944Z,103002.72
2023-02-03T20:29:00.261Z,103011.06
2023-02-03T20:31:28.697Z,103016.47
2023-02-03T20:33:58.814Z,103004.06
2023-02-03T20:36:27.168Z,103003.25
2023-02-03T20:38:55.447Z,103007.06
2023-02-03T20:41:23.783Z,103014.66
2023-02-03T20:43:52.118Z,103010.66
2023-02-03T20:46:21.004Z,103002.03
2023-02-03T20:48:49.596Z,102999.59
2023-02-03T20:51:22.346Z,103013.94
2023-02-03T20:53:51.526Z,103011.22
2023-02-03T20:56:22.786Z,103012.84
2023-02-03T20:58:51.631Z,103007.44
2023-02-03T21:01:22.259Z,103007.72
2023-02-03T21:04:08.179Z,103003.41
2023-02-03T21:06:37.867Z,103011.22
2023-02-03T21:09:15.160Z,103010.41
2023-02-03T21:11:44.248Z,103005.81
2023-02-03T21:14:21.354Z,103020.13
2023-02-03T21:16:49.855Z,103030.94
2023-02-03T21:19:29.511Z,103029.06
2023-02-03T21:22:00.683Z,103032.84
2023-02-03T21:24:32.172Z,103036.34
2023-02-03T21:27:01.696Z,103038.78
2023-02-03T21:29:33.366Z,103030.16
2023-02-03T21:32:02.014Z,103035.56
2023-02-03T21:34:33.053Z,103037.16
2023-02-03T21:37:17.695Z,103040.38
2023-02-03T21:39:47.178Z,103032.25
2023-02-03T21:42:41.927Z,103044.66
2023-02-03T21:45:28.578Z,103042.50
2023-02-03T21:47:58.814Z,103037.09
2023-02-03T21:50:30.902Z,103041.69
2023-02-03T21:53:24.742Z,103032.78
2023-02-03T21:55:53.452Z,103039.25
2023-02-03T21:58:28.926Z,103042.56
2023-02-03T22:00:59.517Z,103051.78
2023-02-03T22:03:30.239Z,103053.66
2023-02-03T22:06:17.479Z,103045.84
2023-02-03T22:08:49.447Z,103057.22
2023-02-03T22:11:23.313Z,103059.13
2023-02-03T22:13:51.689Z,103065.66
2023-02-03T22:16:20.674Z,103063.25
2023-02-03T22:18:50.042Z,103059.69
2023-02-03T22:21:19.395Z,103075.09
2023-02-03T22:23:49.684Z,103079.72
2023-02-03T22:26:18.980Z,103082.19
2023-02-03T22:28:47.664Z,103078.69
2023-02-03T22:31:16.636Z,103080.59
2023-02-03T22:33:45.268Z,103080.59
2023-02-03T22:36:14.503Z,103086.56
2023-02-03T22:38:43.951Z,103086.34
2023-02-03T22:41:13.893Z,103083.91
2023-02-03T22:43:42.565Z,103083.41
2023-02-03T22:46:11.227Z,103086.41
2023-02-03T22:48:39.595Z,103078.59
2023-02-03T22:51:08.190Z,103087.75
2023-02-03T22:53:36.529Z,103092.63
2023-02-03T22:56:05.241Z,103092.94
2023-02-03T22:58:34.974Z,103088.66
2023-02-03T23:01:03.400Z,103078.09
2023-02-03T23:03:32.771Z,103097.88
2023-02-03T23:06:01.237Z,103101.66
2023-02-03T23:08:29.570Z,103100.81
2023-02-03T23:10:57.861Z,103117.03
2023-02-03T23:13:26.805Z,103113.03
2023-02-03T23:15:56.506Z,103127.94
2023-02-03T23:18:24.822Z,103116.03
2023-02-03T23:20:53.081Z,103134.41
2023-02-03T23:23:21.368Z,103128.47
2023-02-03T23:25:49.681Z,103122.56
2023-02-03T23:28:17.998Z,103133.66
2023-02-03T23:30:46.465Z,103133.94
2023-02-03T23:33:16.273Z,103139.88
2023-02-03T23:35:46.484Z,103137.94
2023-02-03T23:38:15.602Z,103144.47
2023-02-03T23:40:44.333Z,103135.81
2023-02-03T23:43:12.621Z,103139.09
2023-02-03T23:45:41.283Z,103144.78
2023-02-03T23:48:09.671Z,103164.75
2023-02-03T23:50:39.748Z,103163.94
2023-02-03T23:53:08.039Z,103162.66
2023-02-03T23:55:36.554Z,103165.06
2023-02-03T23:58:06.038Z,103166.44
